createdAt,value
2018-07-05T00:02:07.510Z,22.19
2018-07-05T00:04:47.153Z,22.11
2018-07-05T00:07:26.865Z,22.00
2018-07-05T00:10:06.542Z,21.93
2018-07-05T00:12:46.153Z,21.90
2018-07-05T00:15:25.816Z,21.89
2018-07-05T00:18:05.446Z,21.92
2018-07-05T00:20:44.920Z,21.88
2018-07-05T00:23:24.444Z,21.91
2018-07-05T00:26:03.954Z,21.89
2018-07-05T00:28:43.478Z,21.82
2018-07-05T00:31:23.001Z,21.68
2018-07-05T00:34:02.646Z,21.63
2018-07-05T00:36:42.485Z,21.62
2018-07-05T00:39:22.238Z,21.57
2018-07-05T00:42:01.897Z,21.50
2018-07-05T00:44:41.585Z,21.39
2018-07-05T00:47:21.336Z,21.40
2018-07-05T00:50:00.935Z,21.47
2018-07-05T00:52:40.637Z,21.49
2018-07-05T00:55:20.348Z,21.51
2018-07-05T00:58:00.192Z,21.49
2018-07-05T01:00:39.886Z,21.49
2018-07-05T01:03:19.911Z,21.44
2018-07-05T01:05:59.500Z,21.42
2018-07-05T01:08:38.961Z,21.41
2018-07-05T01:11:18.576Z,21.39
2018-07-05T01:13:58.327Z,21.34
2018-07-05T01:16:37.993Z,21.28
2018-07-05T01:19:17.601Z,21.28
2018-07-05T01:21:57.250Z,21.34
2018-07-05T01:24:36.961Z,21.36
2018-07-05T01:27:16.498Z,21.37
2018-07-05T01:29:56.026Z,21.33
2018-07-05T01:32:35.529Z,21.29
2018-07-05T01:35:15.037Z,21.26
2018-07-05T01:37:54.713Z,21.26
2018-07-05T01:40:34.355Z,21.21
2018-07-05T01:43:14.019Z,21.27
2018-07-05T01:45:53.744Z,21.28
2018-07-05T01:48:33.484Z,21.26
2018-07-05T01:51:13.120Z,21.24
2018-07-05T01:53:52.645Z,21.27
2018-07-05T01:56:32.408Z,21.31
2018-07-05T01:59:12.036Z,21.35
2018-07-05T02:01:51.729Z,21.39
2018-07-05T02:04:31.411Z,21.42
2018-07-05T02:07:11.076Z,21.44
2018-07-05T02:09:50.897Z,21.45
2018-07-05T02:12:30.512Z,21.44
2018-07-05T02:15:10.301Z,21.41
2018-07-05T02:17:49.935Z,21.31
2018-07-05T02:20:29.537Z,21.27
2018-07-05T02:23:09.321Z,21.22
2018-07-05T02:25:48.853Z,21.20
2018-07-05T02:28:29.897Z,21.25
2018-07-05T02:31:09.556Z,21.27
2018-07-05T02:33:49.116Z,21.30
2018-07-05T02:36:31.236Z,21.16
2018-07-05T02:39:16.107Z,21.24
2018-07-05T02:41:55.632Z,21.21
2018-07-05T02:44:35.140Z,21.14
2018-07-05T02:47:14.715Z,21.12
2018-07-05T02:49:54.388Z,21.12
2018-07-05T02:52:34.071Z,21.14
2018-07-05T02:55:13.725Z,21.13
2018-07-05T02:57:53.485Z,21.15
2018-07-05T03:00:33.044Z,21.17
2018-07-05T03:03:12.634Z,21.16
2018-07-05T03:05:52.220Z,21.16
2018-07-05T03:08:31.977Z,21.18
2018-07-05T03:11:11.662Z,21.18
2018-07-05T03:13:51.344Z,21.17
2018-07-05T03:16:31.042Z,21.11
2018-07-05T03:19:10.648Z,21.13
2018-07-05T03:21:50.127Z,21.09
2018-07-05T03:24:29.741Z,21.05
2018-07-05T03:27:09.355Z,21.02
2018-07-05T03:29:49.136Z,21.00
2018-07-05T03:32:28.810Z,21.02
2018-07-05T03:35:08.420Z,21.03
2018-07-05T03:37:48.084Z,21.06
2018-07-05T03:40:27.833Z,21.08
2018-07-05T03:43:07.614Z,21.09
2018-07-05T03:45:47.347Z,21.08
2018-07-05T03:48:26.832Z,21.07
2018-07-05T03:51:06.383Z,21.02
2018-07-05T03:53:46.080Z,21.02
2018-07-05T03:56:25.759Z,21.04
2018-07-05T03:59:05.473Z,21.05
2018-07-05T04:01:45.247Z,20.98
2018-07-05T04:04:25.076Z,20.92
2018-07-05T04:07:04.826Z,20.91
2018-07-05T04:09:44.843Z,20.87
2018-07-05T04:12:24.536Z,20.78
2018-07-05T04:15:04.261Z,20.72
2018-07-05T04:17:44.033Z,20.55
2018-07-05T04:20:23.749Z,20.43
2018-07-05T04:23:03.466Z,20.44
2018-07-05T04:25:43.061Z,20.54
2018-07-05T04:28:22.684Z,20.55
2018-07-05T04:31:02.332Z,20.56
2018-07-05T04:33:42.052Z,20.55
2018-07-05T04:36:21.642Z,20.50
2018-07-05T04:39:01.340Z,20.37
2018-07-05T04:41:40.829Z,20.11
2018-07-05T04:44:20.526Z,20.05
2018-07-05T04:47:00.189Z,19.95
2018-07-05T04:49:39.915Z,19.88
2018-07-05T04:52:19.598Z,19.89
2018-07-05T04:54:59.253Z,19.80
2018-07-05T04:57:38.871Z,19.83
2018-07-05T05:00:18.523Z,19.93
2018-07-05T05:02:58.219Z,19.92
2018-07-05T05:05:37.974Z,19.90
2018-07-05T05:08:17.608Z,19.83
2018-07-05T05:10:57.313Z,19.76
2018-07-05T05:13:36.924Z,19.87
2018-07-05T05:16:16.609Z,19.86
2018-07-05T05:18:56.244Z,19.91
2018-07-05T05:21:35.847Z,19.88
2018-07-05T05:24:15.683Z,19.74
2018-07-05T05:26:55.372Z,19.95
2018-07-05T05:29:35.006Z,20.04
2018-07-05T05:32:14.635Z,20.07
2018-07-05T05:34:54.293Z,20.07
2018-07-05T05:37:34.072Z,20.00
2018-07-05T05:40:13.749Z,20.02
2018-07-05T05:42:53.433Z,20.07
2018-07-05T05:45:33.073Z,20.04
2018-07-05T05:48:12.772Z,20.05
2018-07-05T05:50:52.276Z,20.06
2018-07-05T05:53:31.968Z,20.06
2018-07-05T05:56:11.625Z,19.96
2018-07-05T05:58:52.052Z,19.70
2018-07-05T06:01:31.888Z,19.60
2018-07-05T06:04:11.332Z,19.60
2018-07-05T06:06:51.008Z,19.56
2018-07-05T06:09:30.613Z,19.60
2018-07-05T06:12:10.196Z,19.75
2018-07-05T06:14:50.357Z,19.93
2018-07-05T06:17:29.902Z,20.06
2018-07-05T06:20:09.563Z,20.12
2018-07-05T06:22:49.071Z,20.22
2018-07-05T06:25:28.741Z,20.23
2018-07-05T06:28:08.326Z,20.21
2018-07-05T06:30:48.323Z,20.21
2018-07-05T06:33:28.583Z,20.20
2018-07-05T06:36:08.151Z,20.17
2018-07-05T06:38:47.685Z,20.06
2018-07-05T06:41:27.422Z,20.05
2018-07-05T06:44:07.136Z,20.05
2018-07-05T06:46:46.806Z,20.04
2018-07-05T06:49:26.670Z,20.05
2018-07-05T06:52:06.377Z,20.02
2018-07-05T06:54:45.957Z,20.10
2018-07-05T06:57:25.560Z,20.22
2018-07-05T07:00:05.280Z,20.32
2018-07-05T07:02:44.954Z,20.39
2018-07-05T07:05:24.602Z,20.39
2018-07-05T07:08:04.203Z,20.36
2018-07-05T07:10:43.682Z,20.32
2018-07-05T07:13:23.383Z,20.37
2018-07-05T07:16:03.124Z,20.34
2018-07-05T07:18:42.848Z,20.43
2018-07-05T07:21:22.655Z,20.45
2018-07-05T07:24:02.230Z,20.44
2018-07-05T07:26:41.904Z,20.39
2018-07-05T07:29:21.488Z,20.34
2018-07-05T07:32:01.105Z,20.30
2018-07-05T07:34:40.661Z,20.27
2018-07-05T07:37:20.458Z,20.30
2018-07-05T07:40:00.061Z,20.42
2018-07-05T07:42:27.256Z,20.55
2018-07-05T07:44:54.479Z,20.54
2018-07-05T07:47:21.685Z,20.39
2018-07-05T07:49:48.902Z,20.40
2018-07-05T07:52:16.124Z,20.41
2018-07-05T07:54:43.334Z,20.40
2018-07-05T07:57:10.504Z,20.43
2018-07-05T07:59:37.724Z,20.39
2018-07-05T08:02:04.935Z,20.39
2018-07-05T08:04:32.145Z,20.41
2018-07-05T08:06:59.326Z,20.48
2018-07-05T08:09:26.691Z,20.52
2018-07-05T08:11:53.980Z,20.55
2018-07-05T08:14:21.192Z,20.56
2018-07-05T08:16:48.410Z,20.54
2018-07-05T08:19:15.629Z,20.58
2018-07-05T08:21:42.826Z,20.59
2018-07-05T08:24:10.069Z,20.58
2018-07-05T08:26:37.294Z,20.61
2018-07-05T08:29:04.493Z,20.63
2018-07-05T08:31:31.721Z,20.55
2018-07-05T08:33:58.888Z,20.50
2018-07-05T08:36:26.094Z,20.54
2018-07-05T08:38:53.308Z,20.52
2018-07-05T08:41:20.492Z,20.55
2018-07-05T08:43:47.700Z,20.57
2018-07-05T08:46:15.264Z,20.62
2018-07-05T08:48:42.699Z,20.68
2018-07-05T08:51:09.921Z,20.68
2018-07-05T08:53:37.084Z,20.68
2018-07-05T08:56:04.327Z,20.65
2018-07-05T08:58:31.557Z,20.64
2018-07-05T09:00:58.774Z,20.68
2018-07-05T09:03:25.993Z,20.76
2018-07-05T09:05:53.238Z,20.85
2018-07-05T09:08:20.455Z,20.82
2018-07-05T09:10:47.668Z,20.86
2018-07-05T09:13:14.861Z,20.89
2018-07-05T09:15:42.095Z,20.92
2018-07-05T09:18:09.429Z,20.97
2018-07-05T09:20:36.556Z,21.00
2018-07-05T09:23:03.828Z,21.07
2018-07-05T09:25:31.038Z,21.16
2018-07-05T09:27:58.261Z,21.20
2018-07-05T09:30:25.518Z,21.27
2018-07-05T09:32:52.717Z,21.30
2018-07-05T09:35:19.896Z,21.23
2018-07-05T09:37:47.113Z,21.24
2018-07-05T09:40:14.327Z,21.25
2018-07-05T09:42:41.524Z,21.25
2018-07-05T09:45:08.715Z,21.31
2018-07-05T09:47:35.928Z,21.41
2018-07-05T09:50:03.149Z,21.44
2018-07-05T09:52:30.398Z,21.51
2018-07-05T09:54:57.583Z,21.57
2018-07-05T09:57:24.776Z,21.63
2018-07-05T09:59:51.981Z,21.61
2018-07-05T10:02:19.208Z,21.62
2018-07-05T10:04:46.413Z,21.64
2018-07-05T10:07:13.636Z,21.16
2018-07-05T10:09:40.839Z,21.55
2018-07-05T10:12:08.033Z,21.60
2018-07-05T10:14:35.228Z,21.65
2018-07-05T10:17:02.444Z,21.70
2018-07-05T10:19:29.746Z,21.67
2018-07-05T10:21:56.898Z,21.72
2018-07-05T10:24:24.091Z,21.80
2018-07-05T10:26:51.385Z,21.79
2018-07-05T10:29:31.093Z,21.91
2018-07-05T10:32:10.842Z,21.97
2018-07-05T10:34:38.031Z,21.98
2018-07-05T10:37:05.232Z,22.01
2018-07-05T10:39:32.416Z,22.07
2018-07-05T10:42:12.181Z,22.10
2018-07-05T10:44:51.872Z,22.17
2018-07-05T10:47:31.697Z,22.24
2018-07-05T10:50:11.267Z,22.33
2018-07-05T10:52:50.847Z,22.40
2018-07-05T10:55:30.592Z,22.53
2018-07-05T10:58:10.385Z,22.61
2018-07-05T11:00:49.998Z,22.71
2018-07-05T11:03:29.632Z,22.76
2018-07-05T11:06:09.181Z,22.78
2018-07-05T11:08:48.755Z,22.78
2018-07-05T11:11:28.310Z,22.74
2018-07-05T11:14:08.064Z,22.72
2018-07-05T11:16:47.912Z,22.74
2018-07-05T11:19:27.567Z,22.77
2018-07-05T11:22:07.304Z,22.78
2018-07-05T11:24:46.946Z,22.80
2018-07-05T11:27:26.653Z,22.83
2018-07-05T11:30:06.399Z,22.91
2018-07-05T11:32:46.016Z,22.89
2018-07-05T11:35:25.792Z,22.91
2018-07-05T11:38:05.503Z,22.97
2018-07-05T11:40:45.173Z,23.03
2018-07-05T11:43:24.769Z,23.16
2018-07-05T11:46:04.383Z,23.28
2018-07-05T11:48:43.952Z,23.33
2018-07-05T11:51:23.569Z,23.37
2018-07-05T11:54:03.446Z,23.50
2018-07-05T11:56:43.105Z,23.61
2018-07-05T11:59:22.783Z,23.68
2018-07-05T12:02:02.645Z,23.86
2018-07-05T12:04:42.393Z,24.04
2018-07-05T12:07:22.054Z,24.15
2018-07-05T12:10:01.914Z,24.12
2018-07-05T12:12:41.549Z,24.12
2018-07-05T12:15:21.472Z,24.22
2018-07-05T12:18:00.959Z,24.47
2018-07-05T12:20:40.553Z,24.36
2018-07-05T12:23:20.222Z,24.43
2018-07-05T12:25:59.936Z,24.68
2018-07-05T12:28:39.552Z,25.04
2018-07-05T12:31:19.534Z,25.26
2018-07-05T12:33:59.147Z,25.21
2018-07-05T12:36:38.950Z,25.35
2018-07-05T12:39:18.720Z,25.23
2018-07-05T12:41:58.378Z,25.32
2018-07-05T12:44:37.980Z,25.06
2018-07-05T12:47:17.896Z,24.83
2018-07-05T12:49:57.523Z,24.61
2018-07-05T12:52:37.145Z,24.49
2018-07-05T12:55:16.795Z,24.32
2018-07-05T12:57:56.561Z,24.22
2018-07-05T13:00:36.170Z,24.13
2018-07-05T13:03:15.774Z,24.08
2018-07-05T13:05:55.360Z,24.09
2018-07-05T13:08:35.103Z,24.05
2018-07-05T13:11:14.828Z,24.03
2018-07-05T13:13:54.512Z,24.02
2018-07-05T13:16:34.199Z,24.01
2018-07-05T13:19:13.884Z,24.01
2018-07-05T13:21:53.655Z,24.09
2018-07-05T13:24:33.320Z,24.40
2018-07-05T13:27:13.057Z,24.90
2018-07-05T13:29:52.879Z,25.26
2018-07-05T13:32:32.480Z,24.98
2018-07-05T13:35:12.132Z,24.90
2018-07-05T13:37:51.811Z,25.15
2018-07-05T13:40:31.502Z,25.48
2018-07-05T13:43:11.172Z,25.71
2018-07-05T13:45:50.908Z,25.57
2018-07-05T13:48:30.687Z,25.29
2018-07-05T13:51:10.414Z,25.13
2018-07-05T13:53:50.132Z,25.25
2018-07-05T13:56:29.834Z,25.51
2018-07-05T13:59:09.572Z,25.74
2018-07-05T14:01:49.119Z,25.66
2018-07-05T14:04:28.798Z,25.77
2018-07-05T14:07:08.353Z,25.45
2018-07-05T14:09:48.013Z,25.18
2018-07-05T14:12:27.693Z,25.10
2018-07-05T14:15:07.412Z,24.97
2018-07-05T14:17:47.040Z,24.85
2018-07-05T14:20:26.938Z,24.78
2018-07-05T14:23:06.485Z,24.78
2018-07-05T14:25:46.128Z,24.73
2018-07-05T14:28:25.721Z,24.79
2018-07-05T14:31:05.503Z,24.93
2018-07-05T14:33:45.014Z,24.96
2018-07-05T14:36:24.522Z,25.13
2018-07-05T14:39:05.111Z,25.16
2018-07-05T14:41:44.734Z,25.15
2018-07-05T14:44:24.341Z,25.16
2018-07-05T14:47:04.067Z,25.13
2018-07-05T14:49:44.093Z,25.17
2018-07-05T14:52:23.678Z,25.22
2018-07-05T14:55:03.349Z,25.22
2018-07-05T14:57:43.015Z,25.30
2018-07-05T15:00:22.621Z,25.47
2018-07-05T15:03:02.340Z,25.40
2018-07-05T15:05:42.044Z,25.36
2018-07-05T15:08:21.658Z,25.44
2018-07-05T15:11:01.416Z,25.42
2018-07-05T15:13:41.036Z,25.37
2018-07-05T15:16:20.685Z,25.34
2018-07-05T15:19:00.540Z,25.34
2018-07-05T15:21:40.101Z,25.28
2018-07-05T15:24:19.803Z,25.25
2018-07-05T15:26:59.365Z,25.22
2018-07-05T15:29:39.010Z,25.25
2018-07-05T15:32:18.778Z,25.15
2018-07-05T15:34:58.541Z,25.13
2018-07-05T15:37:38.202Z,25.15
2018-07-05T15:40:17.922Z,25.21
2018-07-05T15:42:57.615Z,25.24
2018-07-05T15:45:37.178Z,25.24
2018-07-05T15:48:16.863Z,25.26
2018-07-05T15:50:56.548Z,25.26
2018-07-05T15:53:36.265Z,25.21
2018-07-05T15:56:16.712Z,25.31
2018-07-05T15:58:56.268Z,25.44
2018-07-05T16:01:36.742Z,25.35
2018-07-05T16:04:16.357Z,25.34
2018-07-05T16:06:55.981Z,25.36
2018-07-05T16:09:35.616Z,25.30
2018-07-05T16:12:15.828Z,25.19
2018-07-05T16:14:55.349Z,25.14
2018-07-05T16:17:35.021Z,25.13
2018-07-05T16:20:14.605Z,25.09
2018-07-05T16:22:54.135Z,25.05
2018-07-05T16:25:33.713Z,25.05
2018-07-05T16:28:13.333Z,25.02
2018-07-05T16:30:53.088Z,25.01
2018-07-05T16:33:32.936Z,25.05
2018-07-05T16:36:12.405Z,25.05
2018-07-05T16:38:52.093Z,25.17
2018-07-05T16:41:31.853Z,25.36
2018-07-05T16:44:11.648Z,25.46
2018-07-05T16:46:51.405Z,25.51
2018-07-05T16:49:31.095Z,25.50
2018-07-05T16:52:10.531Z,25.39
2018-07-05T16:54:50.250Z,25.39
2018-07-05T16:57:29.915Z,25.53
2018-07-05T17:00:09.782Z,25.67
2018-07-05T17:02:49.463Z,25.83
2018-07-05T17:05:28.952Z,26.03
2018-07-05T17:08:08.503Z,26.24
2018-07-05T17:10:48.277Z,26.25
2018-07-05T17:13:28.103Z,26.08
2018-07-05T17:16:07.800Z,26.02
2018-07-05T17:18:47.560Z,26.04
2018-07-05T17:21:27.208Z,26.06
2018-07-05T17:24:06.961Z,26.10
2018-07-05T17:26:46.534Z,26.04
2018-07-05T17:29:26.056Z,25.84
2018-07-05T17:32:05.739Z,25.78
2018-07-05T17:34:47.241Z,25.81
2018-07-05T17:37:27.443Z,25.66
2018-07-05T17:40:07.149Z,25.66
2018-07-05T17:42:46.840Z,25.80
2018-07-05T17:45:26.551Z,25.78
2018-07-05T17:48:06.237Z,25.74
2018-07-05T17:50:45.918Z,25.75
2018-07-05T17:53:25.629Z,25.73
2018-07-05T17:56:05.206Z,25.62
2018-07-05T17:58:44.739Z,25.52
2018-07-05T18:01:24.267Z,25.54
2018-07-05T18:04:03.945Z,25.50
2018-07-05T18:06:43.671Z,25.45
2018-07-05T18:09:23.185Z,25.31
2018-07-05T18:12:02.853Z,25.21
2018-07-05T18:14:42.501Z,25.22
2018-07-05T18:17:23.215Z,25.23
2018-07-05T18:20:02.760Z,25.15
2018-07-05T18:22:42.432Z,25.12
2018-07-05T18:25:22.127Z,25.12
2018-07-05T18:28:02.016Z,25.05
2018-07-05T18:30:41.524Z,24.99
2018-07-05T18:33:21.023Z,24.92
2018-07-05T18:36:01.055Z,24.89
2018-07-05T18:38:40.881Z,24.85
2018-07-05T18:41:21.414Z,24.80
2018-07-05T18:44:01.065Z,24.76
2018-07-05T18:46:40.848Z,24.71
2018-07-05T18:49:20.499Z,24.66
2018-07-05T18:52:00.204Z,24.58
2018-07-05T18:54:40.029Z,24.48
2018-07-05T18:57:19.729Z,24.45
2018-07-05T19:00:00.175Z,24.41
2018-07-05T19:02:39.778Z,24.37
2018-07-05T19:05:19.349Z,24.29
2018-07-05T19:07:59.680Z,24.24
2018-07-05T19:10:39.111Z,24.18
2018-07-05T19:13:18.599Z,24.11
2018-07-05T19:15:58.347Z,24.07
2018-07-05T19:18:37.877Z,24.01
2018-07-05T19:21:17.982Z,23.94
2018-07-05T19:23:57.575Z,23.85
2018-07-05T19:26:38.107Z,23.81
2018-07-05T19:29:17.728Z,23.75
2018-07-05T19:31:57.443Z,23.68
2018-07-05T19:34:36.940Z,23.63
2018-07-05T19:37:16.497Z,23.56
2018-07-05T19:39:56.073Z,23.54
2018-07-05T19:42:35.790Z,23.48
2018-07-05T19:45:15.251Z,23.45
2018-07-05T19:47:54.901Z,23.38
2018-07-05T19:50:34.487Z,23.33
2018-07-05T19:53:14.020Z,23.27
2018-07-05T19:55:53.818Z,23.21
2018-07-05T19:58:33.469Z,23.16
2018-07-05T20:01:12.985Z,23.15
2018-07-05T20:03:52.741Z,23.11
2018-07-05T20:06:32.486Z,23.09
2018-07-05T20:09:12.306Z,22.99
2018-07-05T20:11:57.244Z,22.92
2018-07-05T20:14:38.322Z,22.85
2018-07-05T20:17:21.534Z,22.81
2018-07-05T20:20:01.263Z,22.75
2018-07-05T20:22:42.115Z,22.68
2018-07-05T20:25:21.736Z,22.54
2018-07-05T20:28:01.635Z,22.46
2018-07-05T20:30:41.309Z,22.42
2018-07-05T20:33:21.269Z,22.39
2018-07-05T20:36:01.605Z,22.37
2018-07-05T20:38:42.960Z,22.33
2018-07-05T20:41:22.938Z,22.20
2018-07-05T20:44:02.674Z,22.18
2018-07-05T20:46:42.478Z,22.22
2018-07-05T20:49:22.012Z,22.21
2018-07-05T20:52:01.549Z,22.15
2018-07-05T20:54:41.096Z,22.08
2018-07-05T20:57:20.804Z,22.08
2018-07-05T21:02:29.483Z,22.06
2018-07-05T21:05:08.954Z,22.02
2018-07-05T21:07:48.814Z,21.94
2018-07-05T21:10:29.313Z,21.90
2018-07-05T21:13:09.365Z,21.50
2018-07-05T21:15:49.308Z,21.81
2018-07-05T21:18:29.114Z,21.73
2018-07-05T21:21:09.452Z,21.64
2018-07-05T21:23:50.917Z,21.61
2018-07-05T21:26:30.659Z,21.49
2018-07-05T21:29:10.469Z,21.44
2018-07-05T21:31:50.232Z,21.44
2018-07-05T21:34:29.915Z,21.44
2018-07-05T21:37:09.644Z,21.38
2018-07-05T21:39:49.392Z,21.29
2018-07-05T21:42:28.998Z,21.25
2018-07-05T21:45:08.494Z,21.18
2018-07-05T21:47:48.635Z,21.10
2018-07-05T21:50:28.276Z,21.06
2018-07-05T21:53:07.947Z,20.99
2018-07-05T21:55:47.517Z,21.00
2018-07-05T21:58:27.804Z,20.93
2018-07-05T22:01:07.549Z,20.89
2018-07-05T22:03:47.186Z,20.77
2018-07-05T22:06:26.997Z,20.67
2018-07-05T22:09:06.688Z,20.67
2018-07-05T22:11:46.300Z,20.59
2018-07-05T22:14:25.882Z,20.48
2018-07-05T22:17:10.841Z,20.51
2018-07-05T22:19:55.757Z,20.56
2018-07-05T22:22:40.700Z,20.55
2018-07-05T22:25:25.824Z,20.55
2018-07-05T22:28:10.726Z,20.49
2018-07-05T22:30:55.693Z,20.33
2018-07-05T22:33:35.209Z,20.29
2018-07-05T22:36:15.835Z,20.29
2018-07-05T22:38:55.545Z,20.14
2018-07-05T22:41:35.270Z,20.04
2018-07-05T22:44:14.957Z,20.08
2018-07-05T22:46:54.776Z,20.10
2018-07-05T22:49:34.328Z,20.10
2018-07-05T22:52:13.991Z,19.98
2018-07-05T22:54:53.574Z,19.95
2018-07-05T22:57:33.800Z,19.89
2018-07-05T23:00:13.406Z,19.86
2018-07-05T23:02:53.089Z,19.78
2018-07-05T23:05:32.810Z,19.81
2018-07-05T23:08:12.411Z,19.73
2018-07-05T23:10:51.978Z,19.64
2018-07-05T23:13:31.607Z,19.63
2018-07-05T23:16:11.325Z,19.48
2018-07-05T23:18:50.993Z,19.38
2018-07-05T23:21:30.636Z,19.35
2018-07-05T23:24:11.049Z,19.34
2018-07-05T23:26:50.648Z,19.35
2018-07-05T23:29:30.166Z,19.43
2018-07-05T23:32:09.716Z,19.56
2018-07-05T23:34:49.172Z,19.57
2018-07-05T23:37:28.630Z,19.47
2018-07-05T23:40:08.203Z,19.51
2018-07-05T23:42:47.897Z,19.50
2018-07-05T23:45:27.505Z,19.49
2018-07-05T23:48:07.206Z,19.38
2018-07-05T23:50:46.915Z,19.40
2018-07-05T23:53:26.779Z,19.27
2018-07-05T23:56:06.542Z,19.28
2018-07-05T23:58:46.368Z,19.30
